createdAt,value
2023-05-15T00:02:09.883Z,7.00
2023-05-15T00:04:36.714Z,5.82
2023-05-15T00:07:04.144Z,6.85
2023-05-15T00:09:31.517Z,6.55
2023-05-15T00:12:00.731Z,7.10
2023-05-15T00:14:27.655Z,6.80
2023-05-15T00:16:54.831Z,6.55
2023-05-15T00:19:22.292Z,6.88
2023-05-15T00:21:49.361Z,7.03
2023-05-15T00:24:16.553Z,7.15
2023-05-15T00:26:43.898Z,7.47
2023-05-15T00:29:12.248Z,6.28
2023-05-15T00:31:39.214Z,7.22
2023-05-15T00:34:06.292Z,6.90
2023-05-15T00:36:33.737Z,7.20
2023-05-15T00:39:00.847Z,7.65
2023-05-15T00:41:32.297Z,7.13
2023-05-15T00:44:01.334Z,7.75
2023-05-15T00:46:32.265Z,7.03
2023-05-15T00:49:00.851Z,7.25
2023-05-15T00:51:27.809Z,6.70
2023-05-15T00:53:56.821Z,6.35
2023-05-15T00:56:25.468Z,7.20
2023-05-15T00:58:54.451Z,7.65
2023-05-15T01:01:22.539Z,6.93
2023-05-15T01:03:49.910Z,7.22
2023-05-15T01:06:17.321Z,7.72
2023-05-15T01:08:46.816Z,7.68
2023-05-15T01:11:15.298Z,7.40
2023-05-15T01:13:42.468Z,7.95
2023-05-15T01:16:10.439Z,7.47
2023-05-15T01:18:38.182Z,7.50
2023-05-15T01:21:11.249Z,7.43
2023-05-15T01:24:04.422Z,8.13
2023-05-15T01:27:02.160Z,7.55
2023-05-15T01:29:32.727Z,7.47
2023-05-15T01:32:09.317Z,8.18
2023-05-15T01:34:46.516Z,7.53
2023-05-15T01:37:18.188Z,7.78
2023-05-15T01:39:47.892Z,6.53
2023-05-15T01:42:19.781Z,7.43
2023-05-15T01:44:53.166Z,6.18
2023-05-15T01:47:31.884Z,6.50
2023-05-15T01:50:05.329Z,6.60
2023-05-15T01:52:38.941Z,7.05
2023-05-15T01:55:07.625Z,7.00
2023-05-15T01:57:36.493Z,6.72
2023-05-15T02:00:04.326Z,7.72
2023-05-15T02:02:42.542Z,7.25
2023-05-15T02:05:13.336Z,7.55
2023-05-15T02:07:44.068Z,7.10
2023-05-15T02:10:13.228Z,6.88
2023-05-15T02:12:41.956Z,7.35
2023-05-15T02:15:10.829Z,7.95
2023-05-15T02:17:38.358Z,7.80
2023-05-15T02:20:06.605Z,8.40
2023-05-15T02:22:33.712Z,7.63
2023-05-15T02:25:00.946Z,7.45
2023-05-15T02:27:33.839Z,7.68
2023-05-15T02:30:30.549Z,8.93
2023-05-15T02:33:16.278Z,7.85
2023-05-15T02:35:52.602Z,7.38
2023-05-15T02:38:24.426Z,8.10
2023-05-15T02:40:57.299Z,8.82
2023-05-15T02:43:26.478Z,7.45
2023-05-15T02:45:56.585Z,8.68
2023-05-15T02:48:24.658Z,8.52
2023-05-15T02:50:53.953Z,8.82
2023-05-15T02:53:25.957Z,8.68
2023-05-15T02:55:52.964Z,8.30
2023-05-15T02:58:19.984Z,7.97
2023-05-15T03:00:46.737Z,8.25
2023-05-15T03:03:13.760Z,8.02
2023-05-15T03:05:41.124Z,8.88
2023-05-15T03:08:10.127Z,8.93
2023-05-15T03:10:37.070Z,9.00
2023-05-15T03:13:05.111Z,9.75
2023-05-15T03:15:32.577Z,9.20
2023-05-15T03:17:59.490Z,9.35
2023-05-15T03:20:26.743Z,8.82
2023-05-15T03:22:54.015Z,9.18
2023-05-15T03:25:23.491Z,10.05
2023-05-15T03:27:50.522Z,10.48
2023-05-15T03:30:17.458Z,8.52
2023-05-15T03:32:44.586Z,8.68
2023-05-15T03:35:12.154Z,9.10
2023-05-15T03:37:38.955Z,7.18
2023-05-15T03:40:07.808Z,7.75
2023-05-15T03:42:38.177Z,8.05
2023-05-15T03:45:06.111Z,6.97
2023-05-15T03:47:32.966Z,7.57
2023-05-15T03:50:01.328Z,9.10
2023-05-15T03:52:28.432Z,8.20
2023-05-15T03:54:55.363Z,8.48
2023-05-15T03:57:23.863Z,9.38
2023-05-15T03:59:51.304Z,9.60
2023-05-15T04:02:18.491Z,8.20
2023-05-15T04:04:45.625Z,8.43
2023-05-15T04:07:13.955Z,9.27
2023-05-15T04:09:40.762Z,8.48
2023-05-15T04:12:08.073Z,9.40
2023-05-15T04:14:35.566Z,8.50
2023-05-15T04:17:02.552Z,8.98
2023-05-15T04:19:30.182Z,9.80
2023-05-15T04:21:58.072Z,10.07
2023-05-15T04:24:25.136Z,10.05
2023-05-15T04:26:52.637Z,9.55
2023-05-15T04:29:19.887Z,9.35
2023-05-15T04:31:48.399Z,9.35
2023-05-15T04:34:16.332Z,9.45
2023-05-15T04:36:43.801Z,10.18
2023-05-15T04:39:12.758Z,10.63
2023-05-15T04:41:41.103Z,10.63
2023-05-15T04:44:08.803Z,11.00
2023-05-15T04:46:37.702Z,11.63
2023-05-15T04:49:04.775Z,12.40
2023-05-15T04:51:31.664Z,13.13
2023-05-15T04:53:58.572Z,12.85
2023-05-15T04:56:25.882Z,13.18
2023-05-15T04:58:52.672Z,13.13
2023-05-15T05:01:19.741Z,12.68
2023-05-15T05:03:46.656Z,15.02
2023-05-15T05:06:14.940Z,13.60
2023-05-15T05:08:42.363Z,14.07
2023-05-15T05:11:09.559Z,13.18
2023-05-15T05:13:37.671Z,13.50
2023-05-15T05:16:04.686Z,13.23
2023-05-15T05:18:31.758Z,14.57
2023-05-15T05:21:02.459Z,15.00
2023-05-15T05:23:30.309Z,15.55
2023-05-15T05:25:57.776Z,16.10
2023-05-15T05:28:24.698Z,15.63
2023-05-15T05:30:51.840Z,15.90
2023-05-15T05:33:19.118Z,17.52
2023-05-15T05:35:46.423Z,15.70
2023-05-15T05:38:13.425Z,15.43
2023-05-15T05:40:40.781Z,16.15
2023-05-15T05:43:07.897Z,17.30
2023-05-15T05:45:34.836Z,15.57
2023-05-15T05:48:07.565Z,16.75
2023-05-15T05:50:34.572Z,15.82
2023-05-15T05:53:01.465Z,17.05
2023-05-15T05:55:28.738Z,17.08
2023-05-15T05:57:56.178Z,15.93
2023-05-15T06:00:25.438Z,15.45
2023-05-15T06:03:00.050Z,16.40
2023-05-15T06:05:27.740Z,17.55
2023-05-15T06:07:56.929Z,16.27
2023-05-15T06:10:24.297Z,16.83
2023-05-15T06:12:51.509Z,16.52
2023-05-15T06:15:18.419Z,15.73
2023-05-15T06:17:45.439Z,16.65
2023-05-15T06:20:12.922Z,16.65
2023-05-15T06:22:41.251Z,15.68
2023-05-15T06:25:13.786Z,15.35
2023-05-15T06:27:42.055Z,14.77
2023-05-15T06:30:10.327Z,16.17
2023-05-15T06:32:37.447Z,16.33
2023-05-15T06:35:04.689Z,15.60
2023-05-15T06:37:31.672Z,16.63
2023-05-15T06:39:58.875Z,16.17
2023-05-15T06:42:27.538Z,14.40
2023-05-15T06:44:54.597Z,14.57
2023-05-15T06:47:21.898Z,15.30
2023-05-15T06:49:48.848Z,15.73
2023-05-15T06:52:17.891Z,16.05
2023-05-15T06:54:44.786Z,16.17
2023-05-15T06:57:12.148Z,15.40
2023-05-15T06:59:39.095Z,14.65
2023-05-15T07:02:06.724Z,15.50
2023-05-15T07:04:33.985Z,14.68
2023-05-15T07:07:01.096Z,15.73
2023-05-15T07:09:27.975Z,15.75
2023-05-15T07:11:54.850Z,15.38
2023-05-15T07:14:21.698Z,15.57
2023-05-15T07:16:48.905Z,15.77
2023-05-15T07:19:24.146Z,15.60
2023-05-15T07:21:51.997Z,15.57
2023-05-15T07:24:19.242Z,14.75
2023-05-15T07:26:58.324Z,15.05
2023-05-15T07:29:27.040Z,14.52
2023-05-15T07:31:53.925Z,14.15
2023-05-15T07:34:22.047Z,14.00
2023-05-15T07:36:49.410Z,14.10
2023-05-15T07:39:16.558Z,12.65
2023-05-15T07:41:43.515Z,12.75
2023-05-15T07:44:11.013Z,12.30
2023-05-15T07:46:39.408Z,11.90
2023-05-15T07:49:06.424Z,12.57
2023-05-15T07:51:33.288Z,12.00
2023-05-15T07:54:00.859Z,12.73
2023-05-15T07:56:28.424Z,12.63
2023-05-15T07:58:55.379Z,11.50
2023-05-15T08:01:22.743Z,13.55
2023-05-15T08:03:52.003Z,12.55
2023-05-15T08:06:19.154Z,12.07
2023-05-15T08:08:46.234Z,11.18
2023-05-15T08:11:13.667Z,11.10
2023-05-15T08:13:40.615Z,10.98
2023-05-15T08:16:08.039Z,11.43
2023-05-15T08:18:34.980Z,11.43
2023-05-15T08:21:04.777Z,10.20
2023-05-15T08:23:31.805Z,10.68
2023-05-15T08:25:59.484Z,10.63
2023-05-15T08:28:26.556Z,10.75
2023-05-15T08:30:53.563Z,9.65
2023-05-15T08:33:20.558Z,10.55
2023-05-15T08:35:47.836Z,10.57
2023-05-15T08:38:15.117Z,10.77
2023-05-15T08:40:47.323Z,11.18
2023-05-15T08:43:21.700Z,10.20
2023-05-15T08:45:51.294Z,9.77
2023-05-15T08:48:21.367Z,9.65
2023-05-15T08:50:50.362Z,10.05
2023-05-15T08:53:18.089Z,10.07
2023-05-15T08:55:45.530Z,10.45
2023-05-15T08:58:13.386Z,10.20
2023-05-15T09:00:40.813Z,10.85
2023-05-15T09:03:14.564Z,10.05
2023-05-15T09:05:41.978Z,10.88
2023-05-15T09:08:09.150Z,12.27
2023-05-15T09:10:36.845Z,12.38
2023-05-15T09:13:04.736Z,11.75
2023-05-15T09:15:33.450Z,12.75
2023-05-15T09:18:01.728Z,12.23
2023-05-15T09:20:32.872Z,12.63
2023-05-15T09:23:02.260Z,11.32
2023-05-15T09:25:48.593Z,12.43
2023-05-15T09:28:30.771Z,11.82
2023-05-15T09:31:03.161Z,11.73
2023-05-15T09:33:35.688Z,11.23
2023-05-15T09:36:04.357Z,11.48
2023-05-15T09:38:43.951Z,12.07
2023-05-15T09:41:11.581Z,12.15
2023-05-15T09:43:39.684Z,10.32
2023-05-15T09:46:08.693Z,11.07
2023-05-15T09:48:36.065Z,11.00
2023-05-15T09:51:03.967Z,11.13
2023-05-15T09:53:32.551Z,9.85
2023-05-15T09:55:59.498Z,9.77
2023-05-15T09:58:26.381Z,9.13
2023-05-15T10:00:53.377Z,10.02
2023-05-15T10:03:21.203Z,9.93
2023-05-15T10:05:48.487Z,10.30
2023-05-15T10:08:16.394Z,9.77
2023-05-15T10:10:43.945Z,9.50
2023-05-15T10:13:12.331Z,9.15
2023-05-15T10:15:40.233Z,9.48
2023-05-15T10:18:09.286Z,9.05
2023-05-15T10:20:37.986Z,8.77
2023-05-15T10:23:06.563Z,8.48
2023-05-15T10:25:39.051Z,7.32
2023-05-15T10:28:10.230Z,8.07
2023-05-15T10:30:38.611Z,6.50
2023-05-15T10:33:06.904Z,6.30
2023-05-15T10:35:39.871Z,6.32
2023-05-15T10:38:07.788Z,6.10
2023-05-15T10:40:38.140Z,5.95
2023-05-15T10:43:06.705Z,5.75
2023-05-15T10:45:36.002Z,6.45
2023-05-15T10:48:06.161Z,7.78
2023-05-15T10:50:33.586Z,7.50
2023-05-15T10:53:02.049Z,8.82
2023-05-15T10:55:31.234Z,7.88
2023-05-15T10:57:58.368Z,8.77
2023-05-15T11:00:31.833Z,8.38
2023-05-15T11:02:59.842Z,9.65
2023-05-15T11:05:27.169Z,10.25
2023-05-15T11:08:15.841Z,9.65
2023-05-15T11:10:43.053Z,11.15
2023-05-15T11:13:10.076Z,9.95
2023-05-15T11:15:47.661Z,10.45
2023-05-15T11:18:15.288Z,10.07
2023-05-15T11:20:54.475Z,10.00
2023-05-15T11:23:22.918Z,9.40
2023-05-15T11:25:55.054Z,9.68
2023-05-15T11:28:23.243Z,8.57
2023-05-15T11:30:59.174Z,8.05
2023-05-15T11:33:29.928Z,8.07
2023-05-15T11:36:00.783Z,7.63
2023-05-15T11:38:27.643Z,7.28
2023-05-15T11:41:02.881Z,5.03
2023-05-15T11:43:31.932Z,3.10
2023-05-15T11:46:04.738Z,3.58
2023-05-15T11:48:43.355Z,2.90
2023-05-15T11:51:18.065Z,3.63
2023-05-15T11:53:45.478Z,3.00
2023-05-15T11:56:28.572Z,3.05
2023-05-15T11:59:00.066Z,3.13
2023-05-15T12:01:27.353Z,2.58
2023-05-15T12:03:55.103Z,3.65
2023-05-15T12:06:25.712Z,3.17
2023-05-15T12:08:53.449Z,3.28
2023-05-15T12:11:24.675Z,2.65
2023-05-15T12:13:55.348Z,2.40
2023-05-15T12:16:26.597Z,2.95
2023-05-15T12:18:54.330Z,2.50
2023-05-15T12:21:21.491Z,2.92
2023-05-15T12:26:27.589Z,2.85
2023-05-15T12:28:55.934Z,2.25
2023-05-15T12:31:23.138Z,3.30
2023-05-15T12:33:50.484Z,2.72
2023-05-15T12:36:21.340Z,2.15
2023-05-15T12:38:51.601Z,2.88
2023-05-15T12:41:20.674Z,2.50
2023-05-15T12:43:49.029Z,2.67
2023-05-15T12:46:15.936Z,2.38
2023-05-15T12:48:44.376Z,3.08
2023-05-15T12:51:11.337Z,2.55
2023-05-15T12:53:40.946Z,2.00
2023-05-15T12:56:16.573Z,2.08
2023-05-15T12:58:43.793Z,1.95
2023-05-15T13:01:11.280Z,2.10
2023-05-15T13:03:38.679Z,2.22
2023-05-15T13:06:07.315Z,1.77
2023-05-15T13:08:49.310Z,1.95
2023-05-15T13:11:18.358Z,1.80
2023-05-15T13:13:50.325Z,2.17
2023-05-15T13:16:30.122Z,2.45
2023-05-15T13:18:58.730Z,1.75
2023-05-15T13:21:26.782Z,2.15
2023-05-15T13:23:53.800Z,2.17
2023-05-15T13:26:21.057Z,1.77
2023-05-15T13:28:48.035Z,2.53
2023-05-15T13:31:15.229Z,2.10
2023-05-15T13:33:42.104Z,2.30
2023-05-15T13:36:09.478Z,2.13
2023-05-15T13:38:41.376Z,2.85
2023-05-15T13:41:11.351Z,2.70
2023-05-15T13:43:38.197Z,2.28
2023-05-15T13:46:05.473Z,1.98
2023-05-15T13:48:32.748Z,1.77
2023-05-15T13:51:00.158Z,3.13
2023-05-15T13:53:27.463Z,2.60
2023-05-15T13:55:54.484Z,3.08
2023-05-15T13:58:22.353Z,3.25
2023-05-15T14:00:49.456Z,2.95
2023-05-15T14:03:16.344Z,2.90
2023-05-15T14:05:43.423Z,2.90
2023-05-15T14:08:10.436Z,3.10
2023-05-15T14:10:37.606Z,2.70
2023-05-15T14:13:04.720Z,2.75
2023-05-15T14:15:31.720Z,2.70
2023-05-15T14:17:59.024Z,3.05
2023-05-15T14:20:26.813Z,2.63
2023-05-15T14:22:54.080Z,2.40
2023-05-15T14:25:22.703Z,2.83
2023-05-15T14:27:49.726Z,2.20
2023-05-15T14:30:16.786Z,3.10
2023-05-15T14:32:43.776Z,2.30
2023-05-15T14:35:10.866Z,1.70
2023-05-15T14:37:37.864Z,2.50
2023-05-15T14:40:05.351Z,2.55
2023-05-15T14:42:32.728Z,2.47
2023-05-15T14:44:59.728Z,1.75
2023-05-15T14:47:28.564Z,1.85
2023-05-15T14:49:55.979Z,1.63
2023-05-15T14:52:23.548Z,1.75
2023-05-15T14:55:00.499Z,3.13
2023-05-15T14:57:35.133Z,1.98
2023-05-15T15:00:02.360Z,2.40
2023-05-15T15:02:29.421Z,2.17
2023-05-15T15:04:57.712Z,2.50
2023-05-15T15:07:29.164Z,2.63
2023-05-15T15:09:56.261Z,2.10
2023-05-15T15:12:23.553Z,1.65
2023-05-15T15:14:50.376Z,2.00
2023-05-15T15:17:17.546Z,1.80
2023-05-15T15:19:44.798Z,1.63
2023-05-15T15:22:11.845Z,1.50
2023-05-15T15:24:38.723Z,1.58
2023-05-15T15:27:05.827Z,3.10
2023-05-15T15:29:33.094Z,2.22
2023-05-15T15:32:00.316Z,2.83
2023-05-15T15:34:27.540Z,2.78
2023-05-15T15:36:54.842Z,3.30
2023-05-15T15:39:21.919Z,6.38
2023-05-15T15:41:49.132Z,6.95
2023-05-15T15:44:16.052Z,8.85
2023-05-15T15:46:42.857Z,3.03
2023-05-15T15:49:09.675Z,2.47
2023-05-15T15:51:36.658Z,2.75
2023-05-15T15:54:03.637Z,2.13
2023-05-15T15:56:30.401Z,2.60
2023-05-15T15:58:57.409Z,2.38
2023-05-15T16:01:24.643Z,2.08
2023-05-15T16:03:51.441Z,1.92
2023-05-15T16:06:18.480Z,2.28
2023-05-15T16:08:45.732Z,2.10
2023-05-15T16:11:12.819Z,2.55
2023-05-15T16:13:41.093Z,2.20
2023-05-15T16:16:08.404Z,3.13
2023-05-15T16:18:35.734Z,3.42
2023-05-15T16:21:03.047Z,2.30
2023-05-15T16:23:36.822Z,2.08
2023-05-15T16:26:05.106Z,1.88
2023-05-15T16:28:32.464Z,2.10
2023-05-15T16:31:00.014Z,2.13
2023-05-15T16:33:27.600Z,2.10
2023-05-15T16:35:54.854Z,1.98
2023-05-15T16:38:23.363Z,2.55
2023-05-15T16:40:51.087Z,3.05
2023-05-15T16:43:18.125Z,2.78
2023-05-15T16:45:45.424Z,3.45
2023-05-15T16:48:12.437Z,2.35
2023-05-15T16:50:39.545Z,2.50
2023-05-15T16:53:07.369Z,2.00
2023-05-15T16:55:34.800Z,2.08
2023-05-15T16:58:02.842Z,2.50
2023-05-15T17:00:29.632Z,2.55
2023-05-15T17:02:56.939Z,1.60
2023-05-15T17:05:24.046Z,2.45
2023-05-15T17:07:50.860Z,2.25
2023-05-15T17:10:17.838Z,2.45
2023-05-15T17:12:46.073Z,2.60
2023-05-15T17:15:13.306Z,1.60
2023-05-15T17:17:40.502Z,2.72
2023-05-15T17:20:08.062Z,1.67
2023-05-15T17:22:35.193Z,2.08
2023-05-15T17:25:04.307Z,1.85
2023-05-15T17:27:31.357Z,1.95
2023-05-15T17:29:58.334Z,1.73
2023-05-15T17:32:25.411Z,1.33
2023-05-15T17:34:52.879Z,2.03
2023-05-15T17:37:21.558Z,1.83
2023-05-15T17:39:51.107Z,1.38
2023-05-15T17:42:18.313Z,1.35
2023-05-15T17:44:45.485Z,1.60
2023-05-15T17:47:13.054Z,1.38
2023-05-15T17:49:40.380Z,1.75
2023-05-15T17:52:08.059Z,2.38
2023-05-15T17:54:35.466Z,3.83
2023-05-15T17:57:02.814Z,2.22
2023-05-15T17:59:31.290Z,2.67
2023-05-15T18:01:58.764Z,1.77
2023-05-15T18:04:26.028Z,1.83
2023-05-15T18:06:53.014Z,2.33
2023-05-15T18:09:23.116Z,1.70
2023-05-15T18:11:51.280Z,2.20
2023-05-15T18:14:18.140Z,1.50
2023-05-15T18:16:45.013Z,2.00
2023-05-15T18:19:12.266Z,1.85
2023-05-15T18:21:39.482Z,2.25
2023-05-15T18:24:07.068Z,1.88
2023-05-15T18:26:33.961Z,1.90
2023-05-15T18:29:00.995Z,1.20
2023-05-15T18:31:27.967Z,1.30
2023-05-15T18:33:57.118Z,1.00
2023-05-15T18:36:24.482Z,1.67
2023-05-15T18:38:51.628Z,1.40
2023-05-15T18:41:18.532Z,1.85
2023-05-15T18:43:45.849Z,2.45
2023-05-15T18:46:12.832Z,1.90
2023-05-15T18:48:39.804Z,2.30
2023-05-15T18:51:08.150Z,3.22
2023-05-15T18:53:35.175Z,2.00
2023-05-15T18:56:02.175Z,2.10
2023-05-15T18:58:30.466Z,3.83
2023-05-15T19:00:57.357Z,1.70
2023-05-15T19:03:26.044Z,2.55
2023-05-15T19:05:52.961Z,2.67
2023-05-15T19:08:20.119Z,2.33
2023-05-15T19:10:50.849Z,1.55
2023-05-15T19:13:18.221Z,2.10
2023-05-15T19:15:52.609Z,2.03
2023-05-15T19:18:20.250Z,2.17
2023-05-15T19:20:49.970Z,2.25
2023-05-15T19:23:17.320Z,2.78
2023-05-15T19:25:45.153Z,2.35
2023-05-15T19:28:13.200Z,1.65
2023-05-15T19:30:40.104Z,2.50
2023-05-15T19:33:06.972Z,2.47
2023-05-15T19:35:36.596Z,2.10
2023-05-15T19:38:04.312Z,2.92
2023-05-15T19:40:36.048Z,2.13
2023-05-15T19:45:31.165Z,3.13
2023-05-15T19:47:59.161Z,1.80
2023-05-15T19:50:26.156Z,2.15
2023-05-15T19:52:53.216Z,1.90
2023-05-15T19:55:20.289Z,2.30
2023-05-15T19:57:48.384Z,1.55
2023-05-15T20:00:15.875Z,2.08
2023-05-15T20:02:43.560Z,2.05
2023-05-15T20:05:10.762Z,1.88
2023-05-15T20:07:38.470Z,2.00
2023-05-15T20:10:05.972Z,2.53
2023-05-15T20:12:32.820Z,2.03
2023-05-15T20:14:59.729Z,2.13
2023-05-15T20:17:27.551Z,2.38
2023-05-15T20:19:54.753Z,1.70
2023-05-15T20:22:22.901Z,2.17
2023-05-15T20:24:50.122Z,2.42
2023-05-15T20:27:17.170Z,2.10
2023-05-15T20:29:45.401Z,1.70
2023-05-15T20:32:13.825Z,1.63
2023-05-15T20:34:42.782Z,1.30
2023-05-15T20:37:09.824Z,1.52
2023-05-15T20:39:37.633Z,2.08
2023-05-15T20:42:05.362Z,1.77
2023-05-15T20:44:33.651Z,1.38
2023-05-15T20:47:01.014Z,1.33
2023-05-15T20:49:30.362Z,1.85
2023-05-15T20:51:57.217Z,2.20
2023-05-15T20:54:24.042Z,1.50
2023-05-15T20:56:50.891Z,2.17
2023-05-15T20:59:18.200Z,1.75
2023-05-15T21:01:45.388Z,1.83
2023-05-15T21:04:14.676Z,1.83
2023-05-15T21:06:43.268Z,1.98
2023-05-15T21:09:10.079Z,2.58
2023-05-15T21:11:36.919Z,1.92
2023-05-15T21:14:04.036Z,1.83
2023-05-15T21:16:31.118Z,2.13
2023-05-15T21:18:58.554Z,1.42
2023-05-15T21:21:35.686Z,1.20
2023-05-15T21:24:04.209Z,1.55
2023-05-15T21:26:31.545Z,1.73
2023-05-15T21:28:59.606Z,1.67
2023-05-15T21:31:27.824Z,1.42
2023-05-15T21:33:55.449Z,2.00
2023-05-15T21:36:22.705Z,1.58
2023-05-15T21:38:49.986Z,1.92
2023-05-15T21:41:17.290Z,1.45
2023-05-15T21:43:44.282Z,1.10
2023-05-15T21:46:11.218Z,1.90
2023-05-15T21:48:38.113Z,1.33
2023-05-15T21:51:05.229Z,2.03
2023-05-15T21:53:32.168Z,1.60
2023-05-15T21:56:00.534Z,1.42
2023-05-15T21:58:28.404Z,0.95
2023-05-15T22:00:55.582Z,1.45
2023-05-15T22:03:24.207Z,1.38
2023-05-15T22:05:52.863Z,1.65
2023-05-15T22:08:20.543Z,1.42
2023-05-15T22:10:48.442Z,1.10
2023-05-15T22:13:16.495Z,1.48
2023-05-15T22:15:43.850Z,1.30
2023-05-15T22:18:11.084Z,1.52
2023-05-15T22:20:39.354Z,1.52
2023-05-15T22:23:06.590Z,1.60
2023-05-15T22:25:34.556Z,2.30
2023-05-15T22:28:01.419Z,1.65
2023-05-15T22:30:29.651Z,1.50
2023-05-15T22:32:56.851Z,1.13
2023-05-15T22:35:23.923Z,1.27
2023-05-15T22:37:51.058Z,1.73
2023-05-15T22:40:18.231Z,2.30
2023-05-15T22:42:45.525Z,1.15
2023-05-15T22:45:12.949Z,1.13
2023-05-15T22:47:41.030Z,1.52
2023-05-15T22:50:08.651Z,1.10
2023-05-15T22:52:35.889Z,1.20
2023-05-15T22:55:02.935Z,1.83
2023-05-15T22:57:29.767Z,1.10
2023-05-15T22:59:58.353Z,1.42
2023-05-15T23:02:25.191Z,1.52
2023-05-15T23:04:52.032Z,1.10
2023-05-15T23:07:19.308Z,1.40
2023-05-15T23:09:46.521Z,1.10
2023-05-15T23:12:13.498Z,1.60
2023-05-15T23:14:40.355Z,1.70
2023-05-15T23:17:07.095Z,1.10
2023-05-15T23:19:38.443Z,1.35
2023-05-15T23:22:05.823Z,1.10
2023-05-15T23:24:32.894Z,0.90
2023-05-15T23:27:02.404Z,1.40
2023-05-15T23:29:29.914Z,1.92
2023-05-15T23:31:57.931Z,1.00
2023-05-15T23:34:24.721Z,1.10
2023-05-15T23:36:51.761Z,1.25
2023-05-15T23:39:19.043Z,1.23
2023-05-15T23:41:47.202Z,1.85
2023-05-15T23:44:14.226Z,1.30
2023-05-15T23:46:41.265Z,0.88
2023-05-15T23:49:08.199Z,1.08
2023-05-15T23:51:36.477Z,1.35
2023-05-15T23:54:03.538Z,1.23
2023-05-15T23:56:30.858Z,1.65
2023-05-15T23:58:58.845Z,1.58
